Time;durP1;ratioP1;P1;durP2;ratioP2;P2;SDS_P1;SDS_P2;PMS_P1;PMS_P2;Temp;Humidity;BMP_temperature;BMP_pressure;BME280_temperature;BME280_humidity;BME280_pressure;Samples;Min_cycle;Max_cycle;Signal;HPM_P1;HPM_P2
2023/10/18 00:01:34;;;;;;;8.98;4.07;;;8.20;99.90;;;;;;4977591;28;20168;-84
2023/10/18 00:04:02;;;;;;;6.05;3.55;;;8.20;99.90;;;;;;4967188;28;20468;-84
2023/10/18 00:06:37;;;;;;;7.65;4.35;;;8.10;99.90;;;;;;4984441;28;20129;-86
2023/10/18 00:11:57;;;;;;;11.50;4.20;;;8.00;99.90;;;;;;4964747;28;20410;-87
2023/10/18 00:14:24;;;;;;;9.43;4.05;;;7.90;99.90;;;;;;4947039;28;20209;-86
2023/10/18 00:16:51;;;;;;;6.45;3.92;;;8.00;99.90;;;;;;4954101;28;20032;-86
2023/10/18 00:19:20;;;;;;;6.50;3.85;;;8.10;99.90;;;;;;4975444;28;21003;-82
2023/10/18 00:21:49;;;;;;;7.40;4.10;;;8.00;99.90;;;;;;4952477;28;20038;-86
2023/10/18 00:24:25;;;;;;;7.32;3.92;;;8.10;99.90;;;;;;4956326;28;20042;-83
2023/10/18 00:26:54;;;;;;;6.88;4.00;;;8.10;99.90;;;;;;4958534;28;20050;-86
2023/10/18 00:29:54;;;;;;;6.68;3.53;;;8.10;99.90;;;;;;4957656;28;20188;-83
2023/10/18 00:32:27;;;;;;;7.50;3.83;;;8.00;99.90;;;;;;4948157;28;20031;-83
2023/10/18 00:34:54;;;;;;;7.57;3.45;;;8.00;99.90;;;;;;4957501;28;20022;-86
2023/10/18 00:37:23;;;;;;;7.70;4.22;;;8.00;99.90;;;;;;4953629;28;20027;-80
2023/10/18 00:39:53;;;;;;;8.35;4.05;;;8.00;99.90;;;;;;4941274;29;20035;-84
2023/10/18 00:42:29;;;;;;;9.93;4.18;;;;;;;;;;4957232;28;20590;-84
2023/10/18 00:45:29;;;;;;;5.90;4.20;;;8.00;99.90;;;;;;4987264;28;26752;-83
2023/10/18 00:47:59;;;;;;;6.43;3.60;;;7.90;99.90;;;;;;4964358;28;20075;-85
2023/10/18 00:50:31;;;;;;;8.02;3.83;;;7.90;99.90;;;;;;4982076;28;20038;-84
2023/10/18 00:53:09;;;;;;;8.50;3.80;;;7.90;99.90;;;;;;4957206;28;20059;-80
2023/10/18 00:55:38;;;;;;;7.85;3.78;;;7.90;99.90;;;;;;4975335;28;20039;-82
2023/10/18 00:58:15;;;;;;;7.22;3.55;;;8.00;99.90;;;;;;4956294;28;20063;-86
2023/10/18 01:00:43;;;;;;;7.03;3.95;;;8.00;99.90;;;;;;4933193;28;20505;-84
2023/10/18 01:03:38;;;;;;;7.05;3.78;;;8.00;99.90;;;;;;4955086;28;20062;-81
2023/10/18 01:06:17;;;;;;;9.23;4.15;;;7.80;99.90;;;;;;4954301;28;20035;-83
2023/10/18 01:08:58;;;;;;;8.43;3.92;;;7.80;99.90;;;;;;4952517;28;20437;-81
2023/10/18 01:11:51;;;;;;;7.55;4.13;;;7.80;99.90;;;;;;4961559;28;20026;-81
2023/10/18 01:14:18;;;;;;;7.10;4.00;;;7.80;99.90;;;;;;4950151;28;20059;-82
2023/10/18 01:17:07;;;;;;;7.82;4.28;;;7.80;99.90;;;;;;4952677;28;20480;-84
2023/10/18 01:19:55;;;;;;;8.98;3.90;;;7.80;99.90;;;;;;4954497;28;20444;-84
2023/10/18 01:26:05;;;;;;;7.25;3.78;;;7.70;99.90;;;;;;4956088;28;20042;-85
2023/10/18 01:28:32;;;;;;;7.72;3.63;;;7.70;99.90;;;;;;4967146;28;20038;-82
2023/10/18 01:30:59;;;;;;;8.57;4.07;;;7.70;99.90;;;;;;4966621;28;20038;-83
2023/10/18 01:33:39;;;;;;;7.82;3.80;;;7.70;99.90;;;;;;4968209;28;20030;-84
2023/10/18 01:39:32;;;;;;;9.05;3.30;;;7.60;99.90;;;;;;4966024;28;20107;-82
2023/10/18 01:42:05;;;;;;;5.90;3.63;;;11.20;99.90;;;;;;4947673;28;20047;-82
2023/10/18 01:44:41;;;;;;;9.10;4.40;;;7.70;99.90;;;;;;4951875;28;20465;-86
2023/10/18 01:50:15;;;;;;;6.13;3.78;;;7.60;99.90;;;;;;4953152;28;20053;-86
2023/10/18 01:52:44;;;;;;;7.88;3.78;;;7.60;99.90;;;;;;4938677;28;20031;-83
2023/10/18 01:55:18;;;;;;;7.22;3.78;;;7.60;99.90;;;;;;4966895;28;20039;-83
2023/10/18 01:58:16;;;;;;;8.93;4.20;;;7.50;99.90;;;;;;4953475;28;20078;-83
2023/10/18 02:00:44;;;;;;;9.45;4.80;;;8.90;99.90;;;;;;4994810;28;20039;-86
2023/10/18 02:03:12;;;;;;;6.90;3.95;;;7.60;99.90;;;;;;4974903;28;20031;-81
2023/10/18 02:05:43;;;;;;;9.98;4.10;;;7.60;99.90;;;;;;4968515;28;20039;-83
2023/10/18 02:08:11;;;;;;;8.50;3.45;;;7.60;99.90;;;;;;4957103;28;20027;-82
2023/10/18 02:10:40;;;;;;;8.00;3.80;;;;;;;;;;4956629;28;20031;-82
2023/10/18 02:13:08;;;;;;;7.18;4.20;;;;;;;;;;4975528;28;20028;-85
2023/10/18 02:15:35;;;;;;;8.38;4.10;;;;;;;;;;4954322;28;20023;-81
2023/10/18 02:18:00;;;;;;;7.18;4.13;;;7.60;99.90;;;;;;4981511;28;20027;-85
2023/10/18 02:20:26;;;;;;;7.03;4.03;;;7.60;99.90;;;;;;4955815;28;20032;-83
2023/10/18 02:22:59;;;;;;;8.45;3.90;;;7.60;99.90;;;;;;4963201;28;20400;-82
2023/10/18 02:28:23;;;;;;;7.53;3.85;;;7.60;99.90;;;;;;4961984;28;20632;-83
2023/10/18 02:30:57;;;;;;;7.70;4.05;;;7.70;99.90;;;;;;4970841;28;20031;-85
2023/10/18 02:33:24;;;;;;;8.32;4.65;;;7.60;99.90;;;;;;4959995;28;20027;-84
2023/10/18 02:35:50;;;;;;;9.90;4.30;;;7.50;99.90;;;;;;4960924;28;20026;-85
2023/10/18 02:38:17;;;;;;;7.13;4.22;;;9.70;99.90;;;;;;4972221;28;20035;-83
2023/10/18 02:40:45;;;;;;;6.38;3.97;;;;;;;;;;4963088;28;20023;-82
2023/10/18 02:43:11;;;;;;;7.20;4.28;;;;;;;;;;4961111;28;20027;-84
2023/10/18 02:45:39;;;;;;;6.00;4.07;;;7.60;99.90;;;;;;4957069;28;20034;-86
2023/10/18 02:48:13;;;;;;;7.05;4.05;;;;;;;;;;4961369;28;20027;-86
2023/10/18 02:50:40;;;;;;;7.80;4.05;;;;;;;;;;4986460;28;20023;-87
2023/10/18 02:53:06;;;;;;;5.88;3.83;;;7.60;99.90;;;;;;4989719;28;20117;-87
2023/10/18 02:55:34;;;;;;;7.10;4.07;;;7.70;99.90;;;;;;4959546;28;20028;-86
2023/10/18 02:57:59;;;;;;;7.90;4.55;;;7.60;99.90;;;;;;4959365;28;20025;-86
2023/10/18 03:00:26;;;;;;;7.13;4.20;;;7.60;99.90;;;;;;4990279;28;20062;-87
2023/10/18 03:02:54;;;;;;;7.25;4.35;;;;;;;;;;4960533;28;20027;-82
2023/10/18 03:05:21;;;;;;;9.82;4.78;;;;;;;;;;4956381;28;20023;-85
2023/10/18 03:07:46;;;;;;;7.13;4.53;;;7.60;99.90;;;;;;4962888;28;20112;-84
2023/10/18 03:10:13;;;;;;;6.95;4.25;;;7.60;99.90;;;;;;4954143;28;20031;-85
2023/10/18 03:12:44;;;;;;;7.90;4.72;;;7.50;99.90;;;;;;4955867;28;21490;-83
2023/10/18 03:15:14;;;;;;;8.13;4.22;;;7.60;99.90;;;;;;4956807;28;20035;-87
2023/10/18 03:17:42;;;;;;;7.32;4.35;;;;;;;;;;4967851;28;20046;-86
2023/10/18 03:20:19;;;;;;;9.82;4.57;;;7.60;99.90;;;;;;4986070;28;20031;-80
2023/10/18 03:22:45;;;;;;;7.22;4.35;;;7.70;99.90;;;;;;4957456;28;20034;-88
2023/10/18 03:25:16;;;;;;;7.85;4.88;;;;;;;;;;4974746;28;20023;-81
2023/10/18 03:27:49;;;;;;;9.27;4.50;;;7.60;99.90;;;;;;4955250;28;20015;-83
2023/10/18 03:30:18;;;;;;;9.15;4.35;;;7.60;99.90;;;;;;4966431;28;20050;-84
2023/10/18 03:32:49;;;;;;;7.90;5.13;;;7.50;99.90;;;;;;4955646;28;20029;-87
2023/10/18 03:35:22;;;;;;;9.02;4.90;;;7.60;99.90;;;;;;4970589;28;20038;-83
2023/10/18 03:37:48;;;;;;;8.23;4.57;;;7.50;99.90;;;;;;4957848;28;20051;-82
2023/10/18 03:40:21;;;;;;;8.02;4.30;;;7.50;99.90;;;;;;4971769;28;20027;-87
2023/10/18 03:42:46;;;;;;;7.35;4.78;;;7.50;99.90;;;;;;4955619;28;20024;-88
2023/10/18 03:45:21;;;;;;;8.77;5.20;;;7.40;99.90;;;;;;4970526;28;20023;-83
2023/10/18 03:47:57;;;;;;;7.72;4.53;;;7.40;99.90;;;;;;4956108;28;20031;-87
2023/10/18 03:50:30;;;;;;;7.95;4.88;;;;;;;;;;4957611;28;20035;-83
2023/10/18 03:52:57;;;;;;;10.65;5.20;;;7.50;99.90;;;;;;4954804;28;20031;-87
2023/10/18 03:55:36;;;;;;;8.40;5.35;;;9.40;99.90;;;;;;4950350;28;20115;-82
2023/10/18 03:58:04;;;;;;;8.70;4.97;;;;;;;;;;4990280;28;20035;-84
2023/10/18 04:00:37;;;;;;;11.65;5.10;;;7.40;99.90;;;;;;4955839;28;20031;-81
2023/10/18 04:03:12;;;;;;;8.10;5.43;;;7.40;99.90;;;;;;4950917;28;21191;-83
2023/10/18 04:05:44;;;;;;;8.75;5.47;;;7.50;99.90;;;;;;4965296;28;20237;-84
2023/10/18 04:08:15;;;;;;;9.55;5.68;;;8.40;99.90;;;;;;4947990;28;20039;-81
2023/10/18 04:10:42;;;;;;;12.02;6.05;;;7.40;99.90;;;;;;4960397;28;20028;-83
2023/10/18 04:13:14;;;;;;;9.15;5.43;;;7.50;99.90;;;;;;4945959;28;20436;-83
2023/10/18 04:15:49;;;;;;;10.30;5.35;;;;;;;;;;4953227;28;20031;-82
2023/10/18 04:18:25;;;;;;;9.63;5.75;;;7.50;99.90;;;;;;4956388;28;20034;-86
2023/10/18 04:20:52;;;;;;;10.27;5.78;;;7.40;99.90;;;;;;4957481;28;20066;-85
2023/10/18 04:23:19;;;;;;;9.20;5.32;;;;;;;;;;4972650;28;20051;-87
2023/10/18 04:26:03;;;;;;;10.02;5.60;;;7.40;99.90;;;;;;4981144;28;20055;-88
2023/10/18 04:28:31;;;;;;;10.32;5.63;;;7.30;99.90;;;;;;4964046;28;20034;-88
2023/10/18 04:31:00;;;;;;;10.23;5.93;;;;;;;;;;4976896;28;20051;-82
2023/10/18 04:33:36;;;;;;;11.77;5.05;;;7.40;99.90;;;;;;4991929;28;20023;-82
2023/10/18 04:36:12;;;;;;;10.25;5.38;;;7.50;99.90;;;;;;4987763;28;20023;-81
2023/10/18 04:38:48;;;;;;;9.18;5.50;;;7.70;99.90;;;;;;4959037;28;20035;-83
2023/10/18 04:41:26;;;;;;;9.13;5.47;;;7.60;99.90;;;;;;4956680;28;20039;-85
2023/10/18 04:44:06;;;;;;;14.93;6.90;;;7.50;99.90;;;;;;4955191;28;20035;-85
2023/10/18 04:46:35;;;;;;;10.82;6.15;;;;;;;;;;4956893;28;20020;-81
2023/10/18 04:49:16;;;;;;;11.55;6.05;;;;;;;;;;4966899;28;20043;-88
2023/10/18 04:54:15;;;;;;;9.95;5.70;;;;;;;;;;4962920;28;20039;-86
2023/10/18 04:56:44;;;;;;;8.77;6.05;;;7.60;99.90;;;;;;4972429;28;20039;-86
2023/10/18 05:04:29;;;;;;;10.38;5.75;;;7.60;99.90;;;;;;4958085;28;20023;-85
2023/10/18 05:06:56;;;;;;;11.63;5.82;;;7.60;99.90;;;;;;4959120;28;20404;-84
2023/10/18 05:09:30;;;;;;;12.68;5.97;;;7.60;99.90;;;;;;4987821;28;20038;-87
2023/10/18 05:12:07;;;;;;;10.45;6.32;;;7.50;99.90;;;;;;4978474;28;20035;-85
2023/10/18 05:14:36;;;;;;;10.32;6.30;;;;;;;;;;4959451;28;20036;-82
2023/10/18 05:17:23;;;;;;;11.27;6.05;;;7.50;99.90;;;;;;4954698;28;20121;-86
2023/10/18 05:19:50;;;;;;;11.55;6.35;;;7.50;99.90;;;;;;4948893;28;20864;-87
2023/10/18 05:22:20;;;;;;;11.88;6.30;;;7.40;99.90;;;;;;4950593;28;20040;-88
2023/10/18 05:27:47;;;;;;;10.38;6.65;;;7.40;99.90;;;;;;4951057;28;20063;-80
2023/10/18 05:30:16;;;;;;;10.68;6.30;;;7.40;99.90;;;;;;4951460;28;20059;-86
2023/10/18 05:33:03;;;;;;;12.15;6.25;;;7.40;99.90;;;;;;4949406;28;20027;-80
2023/10/18 05:35:33;;;;;;;12.05;6.72;;;8.80;99.90;;;;;;4957096;28;20103;-82
2023/10/18 05:37:59;;;;;;;10.85;6.10;;;7.40;99.90;;;;;;4956238;28;20028;-85
2023/10/18 05:43:05;;;;;;;10.43;6.35;;;8.60;99.90;;;;;;4954205;28;20055;-84
2023/10/18 05:45:32;;;;;;;13.70;6.13;;;7.40;99.90;;;;;;4957813;28;20035;-83
2023/10/18 05:48:03;;;;;;;11.20;6.28;;;9.40;99.90;;;;;;4961949;28;20560;-83
2023/10/18 05:50:35;;;;;;;14.35;6.45;;;8.80;99.90;;;;;;4955350;28;20142;-81
2023/10/18 05:53:10;;;;;;;11.38;6.18;;;7.50;99.90;;;;;;4959921;28;20034;-86
2023/10/18 05:55:38;;;;;;;11.50;6.00;;;9.50;99.90;;;;;;4955484;28;20812;-84
2023/10/18 05:58:05;;;;;;;10.32;6.00;;;7.50;99.90;;;;;;4955947;28;20110;-85
2023/10/18 06:00:37;;;;;;;13.00;6.60;;;7.60;99.90;;;;;;4965395;28;20036;-86
2023/10/18 06:03:03;;;;;;;11.52;6.30;;;;;;;;;;4964168;28;20252;-86
2023/10/18 06:05:33;;;;;;;13.98;7.00;;;7.60;99.90;;;;;;4990670;28;20042;-85
2023/10/18 06:08:01;;;;;;;10.65;6.55;;;7.70;99.90;;;;;;4957631;28;20054;-84
2023/10/18 06:10:26;;;;;;;12.10;7.07;;;7.70;99.90;;;;;;4958421;28;20032;-86
2023/10/18 06:13:05;;;;;;;17.35;7.85;;;7.60;99.90;;;;;;4960084;28;20046;-88
2023/10/18 06:15:38;;;;;;;12.10;6.93;;;8.00;99.90;;;;;;4956829;28;20054;-83
2023/10/18 06:18:05;;;;;;;11.88;6.78;;;10.10;99.90;;;;;;4963999;28;20027;-86
2023/10/18 06:20:38;;;;;;;11.82;7.28;;;8.90;99.90;;;;;;4956490;28;20090;-84
2023/10/18 06:23:08;;;;;;;13.82;7.80;;;7.50;99.90;;;;;;4956016;28;20420;-84
2023/10/18 06:25:44;;;;;;;12.23;7.07;;;8.50;99.90;;;;;;4957884;28;20090;-86
2023/10/18 06:28:10;;;;;;;13.90;7.50;;;7.60;99.90;;;;;;4976229;28;20046;-84
2023/10/18 06:30:39;;;;;;;12.05;7.40;;;9.70;99.90;;;;;;4960679;28;21245;-87
2023/10/18 06:33:15;;;;;;;14.40;7.55;;;7.50;99.90;;;;;;4958340;28;20042;-87
2023/10/18 06:35:45;;;;;;;13.13;7.10;;;7.40;99.90;;;;;;4966272;28;20575;-87
2023/10/18 06:38:17;;;;;;;13.68;7.10;;;7.40;99.90;;;;;;4958885;28;20086;-87
2023/10/18 06:40:44;;;;;;;12.88;7.38;;;8.20;99.90;;;;;;4952314;28;20463;-89
2023/10/18 06:43:09;;;;;;;14.75;7.28;;;7.60;99.90;;;;;;4962478;28;20015;-83
2023/10/18 06:45:40;;;;;;;13.63;7.22;;;7.70;99.90;;;;;;4967429;28;20035;-86
2023/10/18 06:48:08;;;;;;;12.07;7.63;;;7.60;99.90;;;;;;4962524;28;20051;-83
2023/10/18 06:50:35;;;;;;;13.50;7.80;;;7.60;99.90;;;;;;4954108;28;20139;-86
2023/10/18 06:53:05;;;;;;;12.75;7.88;;;7.60;99.90;;;;;;4955671;28;20433;-84
2023/10/18 07:00:55;;;;;;;13.18;8.43;;;7.90;99.90;;;;;;4956820;28;20049;-82
2023/10/18 07:03:27;;;;;;;13.93;8.60;;;9.60;99.90;;;;;;4964053;28;20038;-87
2023/10/18 07:05:56;;;;;;;15.05;8.20;;;8.00;99.90;;;;;;4960119;28;20043;-87
2023/10/18 07:08:44;;;;;;;12.93;7.90;;;9.90;99.90;;;;;;4960059;28;20031;-88
2023/10/18 07:11:08;;;;;;;14.80;8.93;;;7.60;99.90;;;;;;4965025;28;20807;-86
2023/10/18 07:13:36;;;;;;;13.57;8.00;;;7.50;99.90;;;;;;4961270;28;20086;-86
2023/10/18 07:16:05;;;;;;;14.98;7.88;;;9.70;99.90;;;;;;4959852;28;20074;-86
2023/10/18 07:18:36;;;;;;;15.18;8.13;;;7.60;99.90;;;;;;4965849;28;20031;-84
2023/10/18 07:21:08;;;;;;;13.07;7.90;;;10.00;99.90;;;;;;4962852;28;20030;-87
2023/10/18 07:23:37;;;;;;;13.18;7.80;;;7.70;99.90;;;;;;4960637;28;20043;-84
2023/10/18 07:26:07;;;;;;;12.85;7.22;;;8.00;99.90;;;;;;4970098;28;20469;-84
2023/10/18 07:28:35;;;;;;;13.87;7.73;;;8.20;99.90;;;;;;4963506;28;20034;-85
2023/10/18 07:31:10;;;;;;;13.80;7.50;;;8.60;99.90;;;;;;4964697;28;20070;-87
2023/10/18 07:33:43;;;;;;;12.07;7.38;;;8.20;99.90;;;;;;4977413;28;20154;-86
2023/10/18 07:36:18;;;;;;;13.55;8.38;;;9.30;99.90;;;;;;4979652;28;20046;-85
2023/10/18 07:38:47;;;;;;;16.38;8.18;;;8.30;99.90;;;;;;4960145;28;20611;-88
2023/10/18 07:41:14;;;;;;;16.75;8.60;;;8.20;99.90;;;;;;4970564;28;20027;-87
2023/10/18 07:43:41;;;;;;;15.25;7.57;;;8.30;99.90;;;;;;4963444;28;20062;-88
2023/10/18 07:46:09;;;;;;;14.52;8.60;;;8.20;99.90;;;;;;4958568;28;20085;-90
2023/10/18 07:48:45;;;;;;;13.80;8.10;;;8.30;99.90;;;;;;4964201;28;20054;-85
2023/10/18 07:51:25;;;;;;;14.10;8.38;;;8.30;99.90;;;;;;4959639;28;20029;-87
2023/10/18 07:53:55;;;;;;;16.95;7.78;;;7.70;99.90;;;;;;4960119;28;20058;-84
2023/10/18 07:56:29;;;;;;;12.63;7.68;;;;;;;;;;4962933;28;20019;-87
2023/10/18 07:59:27;;;;;;;15.48;8.10;;;8.30;99.90;;;;;;4959626;28;20031;-86
2023/10/18 08:01:52;;;;;;;13.50;7.50;;;8.40;99.90;;;;;;4960178;28;20625;-87
2023/10/18 08:04:20;;;;;;;12.43;8.40;;;9.20;99.90;;;;;;4961534;28;20035;-86
2023/10/18 08:06:48;;;;;;;11.45;7.50;;;8.60;99.90;;;;;;4965454;28;20098;-83
2023/10/18 08:09:17;;;;;;;14.65;7.90;;;8.50;99.90;;;;;;4959640;28;20015;-87
2023/10/18 08:11:44;;;;;;;12.73;7.50;;;9.60;99.90;;;;;;4958071;28;20027;-84
2023/10/18 08:14:16;;;;;;;13.98;8.13;;;8.60;99.90;;;;;;4955221;28;20214;-85
2023/10/18 08:16:44;;;;;;;13.25;8.18;;;8.60;99.90;;;;;;4962816;28;20019;-84
2023/10/18 08:19:11;;;;;;;15.13;7.80;;;9.30;99.90;;;;;;4957018;28;20491;-83
2023/10/18 08:21:40;;;;;;;12.60;7.65;;;8.70;99.90;;;;;;4956896;28;20035;-84
2023/10/18 08:24:19;;;;;;;12.63;8.07;;;8.90;99.90;;;;;;4958183;28;20027;-84
2023/10/18 08:26:48;;;;;;;12.13;7.50;;;8.90;99.90;;;;;;4959828;28;20028;-86
2023/10/18 08:29:15;;;;;;;14.93;7.75;;;8.90;99.90;;;;;;4959016;28;20035;-83
2023/10/18 08:31:44;;;;;;;14.73;7.95;;;10.30;99.90;;;;;;4962066;28;20121;-81
2023/10/18 08:34:15;;;;;;;12.57;7.68;;;8.90;99.90;;;;;;4964177;28;20029;-88
2023/10/18 08:36:43;;;;;;;14.15;8.02;;;9.00;99.90;;;;;;4965840;28;20032;-84
2023/10/18 08:39:10;;;;;;;13.15;7.63;;;9.40;99.90;;;;;;4965342;28;20062;-83
2023/10/18 08:41:41;;;;;;;10.50;7.10;;;9.20;99.90;;;;;;4965322;28;20050;-85
2023/10/18 08:44:19;;;;;;;10.63;7.50;;;9.70;99.90;;;;;;4978638;28;20077;-86
2023/10/18 08:46:55;;;;;;;14.70;8.50;;;9.30;99.90;;;;;;4962807;28;20037;-88
2023/10/18 08:49:32;;;;;;;11.75;7.25;;;9.60;99.90;;;;;;4976759;28;20040;-84
2023/10/18 08:52:06;;;;;;;11.90;7.70;;;10.50;99.90;;;;;;4961424;28;20535;-86
2023/10/18 08:54:33;;;;;;;10.90;7.40;;;10.90;99.90;;;;;;4965957;28;20038;-86
2023/10/18 08:57:06;;;;;;;13.68;8.10;;;9.50;99.90;;;;;;4978722;28;20058;-81
2023/10/18 08:59:42;;;;;;;12.93;7.65;;;11.00;99.90;;;;;;4977084;28;20030;-87
2023/10/18 09:02:17;;;;;;;12.90;7.50;;;9.70;99.90;;;;;;4966014;28;20358;-89
2023/10/18 09:04:44;;;;;;;13.00;7.85;;;9.80;99.90;;;;;;4972216;28;20042;-86
2023/10/18 09:07:23;;;;;;;13.10;8.00;;;9.70;99.90;;;;;;4968306;28;20099;-88
2023/10/18 09:09:56;;;;;;;11.57;7.28;;;10.40;99.90;;;;;;4971517;28;20027;-87
2023/10/18 09:15:25;;;;;;;14.95;7.85;;;9.90;99.90;;;;;;4961436;28;20097;-85
2023/10/18 09:17:45;;;;;;;12.95;7.03;;;9.90;99.90;;;;;;4969249;28;20115;-84
2023/10/18 09:20:15;;;;;;;12.70;6.88;;;9.90;99.90;;;;;;4962036;28;20023;-84
2023/10/18 09:22:45;;;;;;;11.75;7.07;;;10.00;99.90;;;;;;4962970;28;20043;-84
2023/10/18 09:25:11;;;;;;;13.50;7.50;;;10.10;99.90;;;;;;4960151;28;20087;-85
2023/10/18 09:27:37;;;;;;;12.43;7.13;;;10.10;99.90;;;;;;4964322;28;20824;-84
2023/10/18 09:30:13;;;;;;;11.55;7.03;;;10.20;99.90;;;;;;4969066;28;20467;-86
2023/10/18 09:32:39;;;;;;;12.05;7.28;;;10.20;99.90;;;;;;4965054;28;20110;-82
2023/10/18 09:35:11;;;;;;;12.77;7.57;;;10.30;99.90;;;;;;4969033;28;20020;-87
2023/10/18 09:37:38;;;;;;;13.25;7.05;;;10.30;99.90;;;;;;4963013;28;20035;-88
2023/10/18 09:40:06;;;;;;;12.60;7.80;;;10.30;99.90;;;;;;4962671;28;20041;-87
2023/10/18 09:42:35;;;;;;;12.60;6.97;;;10.30;99.90;;;;;;4961893;28;20440;-84
2023/10/18 09:45:02;;;;;;;15.00;7.93;;;10.40;99.90;;;;;;4978159;28;20027;-88
2023/10/18 09:47:28;;;;;;;13.45;7.40;;;10.60;99.90;;;;;;4960720;28;20059;-86
2023/10/18 09:49:58;;;;;;;13.23;7.13;;;10.80;99.90;;;;;;4964733;28;20031;-85
2023/10/18 09:52:25;;;;;;;11.90;7.30;;;10.50;99.90;;;;;;4961423;28;20027;-83
2023/10/18 09:54:52;;;;;;;10.48;7.03;;;11.50;99.90;;;;;;4964819;28;20302;-87
2023/10/18 09:57:24;;;;;;;15.13;7.53;;;10.60;99.90;;;;;;4956644;28;20153;-83
2023/10/18 09:59:54;;;;;;;11.05;7.50;;;10.70;99.90;;;;;;4961626;28;20032;-82
2023/10/18 10:02:24;;;;;;;10.55;7.25;;;10.60;99.90;;;;;;4960214;28;20067;-85
2023/10/18 10:04:54;;;;;;;10.95;7.55;;;10.70;99.90;;;;;;4954616;28;20515;-85
2023/10/18 10:07:39;;;;;;;14.50;7.97;;;10.80;99.90;;;;;;4957347;28;20031;-85
2023/10/18 10:10:08;;;;;;;11.95;7.28;;;10.80;99.90;;;;;;4957479;28;20094;-85
2023/10/18 10:12:42;;;;;;;10.32;6.65;;;10.90;99.90;;;;;;4963899;28;20038;-87
2023/10/18 10:15:13;;;;;;;12.48;7.05;;;11.10;99.90;;;;;;4965832;28;20039;-87
2023/10/18 10:17:45;;;;;;;14.18;7.40;;;11.10;99.90;;;;;;4964074;28;20538;-85
2023/10/18 10:20:14;;;;;;;11.60;7.18;;;11.20;99.90;;;;;;4962730;28;20578;-85
2023/10/18 10:22:45;;;;;;;12.82;6.53;;;11.20;99.90;;;;;;4967462;28;20035;-85
2023/10/18 10:25:31;;;;;;;10.63;6.88;;;11.30;99.90;;;;;;4978519;28;20031;-89
2023/10/18 10:27:59;;;;;;;10.65;6.95;;;11.30;99.90;;;;;;4968765;28;20035;-86
2023/10/18 10:30:46;;;;;;;12.90;7.60;;;11.40;99.90;;;;;;4974012;28;20108;-86
2023/10/18 10:33:12;;;;;;;9.15;6.28;;;11.40;99.90;;;;;;4968276;29;20247;-81
2023/10/18 10:35:47;;;;;;;12.50;7.43;;;11.60;99.90;;;;;;4966737;28;20034;-83
2023/10/18 10:38:13;;;;;;;11.57;6.72;;;11.60;99.90;;;;;;4963397;29;20051;-86
2023/10/18 10:40:48;;;;;;;11.23;6.82;;;11.70;99.90;;;;;;4969876;28;20022;-83
2023/10/18 10:43:18;;;;;;;14.02;7.43;;;12.00;99.90;;;;;;4968284;28;20026;-82
2023/10/18 10:48:30;;;;;;;12.82;7.10;;;12.00;99.90;;;;;;4974181;28;20045;-83
2023/10/18 10:51:25;;;;;;;11.20;6.57;;;12.10;99.90;;;;;;4986244;28;20046;-85
2023/10/18 10:54:06;;;;;;;10.45;6.63;;;12.20;99.90;;;;;;4963964;28;20659;-86
2023/10/18 10:56:43;;;;;;;;;;;12.20;99.90;;;;;;4975915;28;20034;-84
2023/10/18 10:59:19;;;;;;;11.13;7.07;;;12.20;99.90;;;;;;4986061;28;19910;-86
2023/10/18 11:11:26;;;;;;;;;;;;;;;;;;;;;
2023/10/18 11:14:01;;;;;;;11.73;6.50;;;12.50;99.90;;;;;;4900523;29;20056;-87
2023/10/18 11:16:41;;;;;;;11.55;7.07;;;12.50;99.90;;;;;;4897192;29;20082;-87
2023/10/18 11:19:15;;;;;;;9.90;6.60;;;12.40;99.90;;;;;;5040273;23;20057;-88
2023/10/18 11:21:41;;;;;;;11.57;6.70;;;12.40;99.90;;;;;;4989034;28;20169;-88
2023/10/18 11:24:11;;;;;;;13.10;6.40;;;12.30;99.90;;;;;;4971952;28;20087;-88
2023/10/18 11:26:43;;;;;;;11.57;6.15;;;12.30;99.90;;;;;;4983648;28;20031;-88
2023/10/18 11:29:09;;;;;;;12.07;6.18;;;12.80;99.90;;;;;;4974917;28;20033;-90
2023/10/18 11:31:38;;;;;;;9.40;5.97;;;12.30;99.90;;;;;;4970370;28;20028;-89
2023/10/18 11:34:07;;;;;;;9.60;6.28;;;12.30;99.90;;;;;;4974453;28;20039;-91
2023/10/18 11:36:39;;;;;;;9.98;5.82;;;12.30;99.90;;;;;;4971057;28;20322;-87
2023/10/18 11:41:44;;;;;;;9.38;5.70;;;12.30;99.90;;;;;;4987025;28;20019;-88
2023/10/18 11:44:16;;;;;;;10.70;6.22;;;13.30;99.90;;;;;;4988558;28;20039;-88
2023/10/18 11:46:52;;;;;;;11.88;5.65;;;12.50;99.90;;;;;;4970460;28;20035;-88
2023/10/18 11:49:19;;;;;;;11.05;5.80;;;12.30;99.90;;;;;;5018065;23;20026;-90
2023/10/18 11:51:51;;;;;;;17.25;5.60;;;12.20;99.90;;;;;;5013665;28;20032;-87
2023/10/18 11:54:35;;;;;;;9.02;5.60;;;12.20;99.90;;;;;;5025945;28;20009;-88
2023/10/18 11:57:05;;;;;;;10.57;6.30;;;12.10;99.90;;;;;;5008190;28;20049;-91
2023/10/18 12:22:48;;;;;;;12.65;5.80;;;12.50;99.90;;;;;;4985638;28;20046;-78
2023/10/18 12:25:15;;;;;;;8.55;5.13;;;12.50;99.90;;;;;;4995350;28;20030;-79
2023/10/18 12:27:50;;;;;;;9.73;4.78;;;12.60;99.90;;;;;;4994910;28;20058;-79
2023/10/18 12:30:27;;;;;;;8.18;5.03;;;13.90;99.90;;;;;;4992196;28;20030;-79
2023/10/18 12:32:54;;;;;;;9.27;5.03;;;12.40;99.90;;;;;;4982864;28;20468;-79
2023/10/18 12:35:28;;;;;;;9.23;4.97;;;13.00;99.90;;;;;;4994203;28;20061;-81
2023/10/18 12:37:55;;;;;;;7.28;4.85;;;12.80;99.90;;;;;;4997761;28;20104;-79
2023/10/18 12:42:58;;;;;;;8.50;4.30;;;13.30;99.90;;;;;;4985285;28;20046;-79
2023/10/18 12:45:23;;;;;;;;;;;13.30;99.90;;;;;;4970220;28;20026;-79
2023/10/18 12:47:51;;;;;;;9.95;4.38;;;13.50;99.90;;;;;;4994165;28;19917;-80
2023/10/18 12:50:21;;;;;;;9.38;4.07;;;14.30;99.90;;;;;;4980694;28;20035;-79
2023/10/18 12:52:51;;;;;;;7.00;3.97;;;13.40;99.90;;;;;;4979549;28;20023;-80
2023/10/18 12:55:36;;;;;;;7.38;3.78;;;13.50;99.90;;;;;;4992064;28;20066;-78
2023/10/18 12:58:06;;;;;;;7.40;3.70;;;13.60;99.90;;;;;;4993889;28;20109;-79
2023/10/18 13:00:42;;;;;;;9.70;4.40;;;13.60;99.90;;;;;;4976000;28;20030;-80
2023/10/18 13:03:22;;;;;;;6.55;4.00;;;12.20;99.90;;;;;;4988135;28;20018;-79
2023/10/18 13:06:06;;;;;;;8.68;4.22;;;15.20;99.90;;;;;;4992306;28;20018;-79
2023/10/18 13:08:39;;;;;;;6.47;4.10;;;13.60;99.90;;;;;;4979849;28;20122;-78
2023/10/18 13:13:33;;;;;;;6.80;3.80;;;13.50;99.90;;;;;;4995190;28;20109;-79
2023/10/18 13:15:59;;;;;;;7.38;4.00;;;13.70;99.90;;;;;;5006015;28;20460;-79
2023/10/18 13:18:28;;;;;;;8.98;3.78;;;13.70;99.90;;;;;;4986223;28;20055;-78
2023/10/18 13:20:54;;;;;;;8.80;3.60;;;13.70;99.90;;;;;;5000821;28;20392;-78
2023/10/18 13:23:27;;;;;;;7.20;4.10;;;13.70;99.90;;;;;;4998237;28;20029;-80
2023/10/18 13:26:26;;;;;;;7.85;3.80;;;13.60;99.90;;;;;;5015682;28;20026;-79
2023/10/18 13:28:59;;;;;;;12.77;4.05;;;12.50;99.90;;;;;;4995028;28;20026;-79
2023/10/18 13:31:35;;;;;;;8.02;3.85;;;13.10;99.90;;;;;;4996664;28;20030;-79
2023/10/18 13:37:39;;;;;;;6.82;3.85;;;12.40;99.90;;;;;;5005014;28;20053;-79
2023/10/18 13:40:18;;;;;;;7.78;4.07;;;13.80;99.90;;;;;;4986238;28;20033;-79
2023/10/18 13:42:50;;;;;;;7.10;4.20;;;13.70;99.90;;;;;;5004936;28;20048;-79
2023/10/18 13:45:19;;;;;;;5.93;3.40;;;13.90;99.90;;;;;;4977947;28;20062;-80
2023/10/18 13:47:51;;;;;;;9.52;4.10;;;13.50;99.90;;;;;;4999959;28;20035;-79
2023/10/18 13:50:18;;;;;;;8.00;3.78;;;13.70;99.90;;;;;;5006206;28;20029;-79
2023/10/18 13:52:56;;;;;;;6.55;3.53;;;13.70;99.90;;;;;;5003144;28;20023;-79
2023/10/18 13:55:22;;;;;;;7.57;3.60;;;14.20;99.90;;;;;;4988014;28;20022;-79
2023/10/18 13:57:49;;;;;;;6.82;3.85;;;12.50;99.90;;;;;;5003850;28;20023;-79
2023/10/18 14:00:25;;;;;;;7.88;4.10;;;12.80;99.90;;;;;;4995179;28;20034;-79
2023/10/18 14:03:13;;;;;;;8.45;4.55;;;15.20;99.90;;;;;;4989003;28;20091;-79
2023/10/18 14:05:45;;;;;;;7.07;4.03;;;13.40;99.90;;;;;;4994092;28;20030;-80
2023/10/18 14:09:16;;;;;;;5.43;3.58;;;13.40;99.90;;;;;;4967559;28;20036;-81
2023/10/18 14:11:44;;;;;;;5.60;3.70;;;13.40;99.90;;;;;;5000832;28;20044;-80
2023/10/18 14:14:25;;;;;;;10.30;3.80;;;14.50;99.90;;;;;;5001015;28;20061;-79
2023/10/18 14:16:56;;;;;;;8.45;3.85;;;13.10;99.90;;;;;;4995542;28;20022;-79
2023/10/18 14:19:23;;;;;;;7.50;3.65;;;13.40;99.90;;;;;;4975124;28;20602;-80
2023/10/18 14:21:54;;;;;;;7.38;3.58;;;13.30;99.90;;;;;;4998718;28;20431;-79
2023/10/18 14:25:20;;;;;;;5.47;3.67;;;13.40;99.90;;;;;;5000034;28;20123;-78
2023/10/18 14:28:01;;;;;;;7.20;4.07;;;13.30;99.90;;;;;;4999819;28;20038;-79
2023/10/18 14:30:36;;;;;;;8.55;4.18;;;11.60;99.90;;;;;;4994015;28;20043;-78
2023/10/18 14:33:04;;;;;;;7.28;3.90;;;12.50;99.90;;;;;;5002898;28;20040;-78
2023/10/18 14:35:33;;;;;;;8.20;3.95;;;13.40;99.90;;;;;;4995824;28;20030;-81
2023/10/18 14:38:06;;;;;;;9.73;4.00;;;11.90;99.90;;;;;;4988932;28;20030;-80
2023/10/18 14:41:08;;;;;;;11.50;3.83;;;13.90;99.90;;;;;;4987770;28;20034;-80
2023/10/18 14:43:41;;;;;;;9.40;4.25;;;13.50;99.90;;;;;;4985481;28;20373;-79
2023/10/18 14:46:26;;;;;;;7.28;3.70;;;13.30;99.90;;;;;;4970727;28;20080;-79